Terminal Aerodrome Forecast
Issued by NWS

Home | Current Version | Previous Version | Text Only | Print | Product List | Glossary On
Versions: 1 2 3 4 5 6 7 8 9 10 11 12 13 14 15 16
000
FTUS42 KGSP 041122
TAFAND
TAF
KAND 041122Z 0412/0512 00000KT P6SM BKN250
     FM041500 24004KT P6SM FEW045 BKN250
     FM041800 24006KT P6SM SCT060 BKN250
     FM050200 00000KT P6SM FEW070 BKN250=

USA.gov is the U.S. government's official web portal to all federal, state and local government web resources and services.